Ana Sayfa
METAR-TAF:

METAR-TAF

Havaalanları :

Albany, New York, Amerika Birleşik Devletleri

Enlem: 42-44-53N, Boylam: 073-48-06W, yükseklik: 87 m

Güncel hava durumu gözlemi

Rapor saat 04:51 UTC de 33 dakika önce yapıldı.
Rüzgar kuzeydan 4 kt
Sıcaklık 4°C
Nem 52%
Basınç 1014 hPa
Görüş mesafesi: 16.1 km
6000 ft yükseklikte parçalı çok bulutlu
25000 ft yükseklikte parçalı çok bulutlu

METAR: KALB 010451Z 36004KT 10SM BKN060 BKN250 04/M05 A2993 RMK AO2 SLP138 T00391050 400890033

Saat: 01:24 (05:24 UTC)

Tahmin

Rapor saat 23:31 UTC de 5 saat ve 53 dakika önce yapıldı.
Ayın 01'si saat 00 UTC'den ayın 01'si saat 24 UTC'ye kadar geçerli Tahmin
Rüzgar kuzey/kuzeydoğudan 4 kt
Görüş mesafesi: 10 km
4000 ft yükseklikte parçalı bulutlu
Ayın 01'si saat 1600 UTC'den
Rüzgar kuzeydan 7 kt
Görüş mesafesi: 10 km
25000 ft yükseklikte parçalı çok bulutlu

TAF: KALB 312331Z 0100/0124 02004KT P6SM SCT040 FM011600 35007KT P6SM BKN250

4.000'den fazla havaalanı için hava durumu gözlemleri ve tahminleri (METAR ve TAF raporları).

Kullanılabilir istasyonlar harita üzerinde sarı ve kırmızı noktalarla gösterilir.

İstasyonun adını görmek için fareyi noktanın üzerinde gezdirin.

Sonrasında hava gözlem ve tahminlerini görmek için tıklayın.

Haritayı değiştirmek için: yaklaştırmak için siyah artı işaretli yeşil düğmeye ve uzaklaştırmak için de eksi işaretli düğmeye hızla tıklayın; bitişik haritalar için yeşil okları kullanın.


METAR-TAF: